createdAt,value
2023-01-03T00:00:59.917Z,98146.59
2023-01-03T00:03:32.440Z,98146.98
2023-01-03T00:06:06.585Z,98142.01
2023-01-03T00:08:39.878Z,98134.11
2023-01-03T00:11:17.151Z,98134.77
2023-01-03T00:13:50.163Z,98135.31
2023-01-03T00:16:23.474Z,98136.51
2023-01-03T00:18:55.999Z,98132.20
2023-01-03T00:21:28.531Z,98134.27
2023-01-03T00:24:02.000Z,98133.42
2023-01-03T00:26:34.933Z,98136.88
2023-01-03T00:29:08.431Z,98143.61
2023-01-03T00:31:39.984Z,98143.29
2023-01-03T00:34:13.203Z,98139.95
2023-01-03T00:36:46.601Z,98144.08
2023-01-03T00:39:19.372Z,98148.04
2023-01-03T00:41:52.773Z,98152.20
2023-01-03T00:44:27.873Z,98149.61
2023-01-03T00:47:01.775Z,98156.29
2023-01-03T00:49:34.350Z,98158.02
2023-01-03T00:52:07.123Z,98163.53
2023-01-03T00:54:40.010Z,98167.50
2023-01-03T00:57:13.104Z,98167.18
2023-01-03T00:59:45.852Z,98167.15
2023-01-03T01:02:20.785Z,98172.52
2023-01-03T01:04:55.393Z,98172.56
2023-01-03T01:07:28.305Z,98168.95
2023-01-03T01:10:01.489Z,98179.94
2023-01-03T01:12:34.461Z,98176.36
2023-01-03T01:15:09.405Z,98173.55
2023-01-03T01:17:42.657Z,98173.66
2023-01-03T01:20:17.997Z,98176.44
2023-01-03T01:22:51.784Z,98177.30
2023-01-03T01:25:24.493Z,98178.67
2023-01-03T01:27:58.698Z,98185.23
2023-01-03T01:30:33.544Z,98188.65
2023-01-03T01:33:06.055Z,98190.17
2023-01-03T01:35:38.610Z,98190.24
2023-01-03T01:38:13.361Z,98189.04
2023-01-03T01:40:46.464Z,98186.15
2023-01-03T01:43:37.016Z,98189.44
2023-01-03T01:46:21.521Z,98190.85
2023-01-03T01:48:59.782Z,98192.75
2023-01-03T01:51:39.230Z,98198.09
2023-01-03T01:54:12.683Z,98197.58
2023-01-03T01:56:48.990Z,98197.94
2023-01-03T01:59:21.845Z,98198.83
2023-01-03T05:41:01.821Z,98412.12
2023-01-03T05:43:35.118Z,98404.91
2023-01-03T05:48:59.886Z,98411.83
2023-01-03T05:51:32.546Z,98417.84
2023-01-03T05:54:08.857Z,98426.23
2023-01-03T06:00:14.161Z,98424.20
2023-01-03T06:03:09.044Z,98423.17
2023-01-03T06:08:29.595Z,98436.41
2023-01-03T06:11:06.715Z,98438.48
2023-01-03T06:13:44.138Z,98438.52
2023-01-03T06:16:52.837Z,98436.29
2023-01-03T06:19:35.160Z,98433.89
2023-01-03T06:24:59.824Z,98443.70
2023-01-03T06:27:33.683Z,98444.06
2023-01-03T06:30:07.677Z,98449.23
2023-01-03T06:36:09.457Z,98466.98
2023-01-03T06:39:02.117Z,98475.60
2023-01-03T06:44:31.581Z,98484.04
2023-01-03T06:47:23.315Z,98487.48
2023-01-03T06:50:21.816Z,98490.40
2023-01-03T06:53:12.486Z,98494.19
2023-01-03T06:55:56.144Z,98501.23
2023-01-03T06:58:37.980Z,98506.59
2023-01-03T07:04:00.701Z,98515.18
2023-01-03T07:06:33.345Z,98516.73
2023-01-03T07:09:09.605Z,98518.27
2023-01-03T07:14:31.554Z,98520.86
2023-01-03T07:17:05.136Z,98527.40
2023-01-03T07:19:38.235Z,98530.48
2023-01-03T07:25:02.877Z,98536.52
2023-01-03T07:27:35.761Z,98542.52
2023-01-03T07:30:13.826Z,98544.74
2023-01-03T07:33:10.452Z,98546.47
2023-01-03T07:38:30.367Z,98554.65
2023-01-03T07:41:04.986Z,98558.38
2023-01-03T07:43:41.567Z,98560.46
2023-01-03T07:46:36.136Z,98562.34
2023-01-03T07:52:05.324Z,98571.96
2023-01-03T07:54:51.207Z,98575.91
2023-01-03T07:57:23.965Z,98573.84
2023-01-03T08:00:04.403Z,98580.19
2023-01-03T08:03:10.621Z,98583.62
2023-01-03T08:06:03.219Z,98588.23
2023-01-03T08:12:38.971Z,98589.23
2023-01-03T08:15:10.335Z,98596.15
2023-01-03T08:20:28.705Z,98596.83
2023-01-03T08:23:00.692Z,98599.75
2023-01-03T08:25:33.922Z,98604.22
2023-01-03T08:31:02.986Z,98599.56
2023-01-03T08:33:39.133Z,98600.75
2023-01-03T08:36:10.475Z,98605.73
2023-01-03T08:42:08.050Z,98601.55
2023-01-03T08:47:32.458Z,98614.54
2023-01-03T08:50:02.968Z,98615.42
2023-01-03T08:52:35.519Z,98616.14
2023-01-03T08:57:59.685Z,98620.66
2023-01-03T09:00:30.215Z,98615.99
2023-01-03T09:03:05.085Z,98621.86
2023-01-03T09:05:35.386Z,98621.16
2023-01-03T09:08:05.662Z,98616.47
2023-01-03T09:10:39.670Z,98622.74
2023-01-03T09:13:32.748Z,98617.99
2023-01-03T09:16:03.577Z,98622.09
2023-01-03T09:18:34.586Z,98615.65
2023-01-03T09:21:07.665Z,98615.79
2023-01-03T09:26:29.708Z,98609.70
2023-01-03T09:29:00.353Z,98610.05
2023-01-03T09:31:40.334Z,98607.42
2023-01-03T09:34:32.052Z,98609.30
2023-01-03T09:37:04.063Z,98607.14
2023-01-03T09:39:34.656Z,98610.39
2023-01-03T09:42:25.724Z,98612.33
2023-01-03T09:45:05.747Z,98611.16
2023-01-03T09:50:50.724Z,98624.81
2023-01-03T10:09:26.046Z,98618.02
2023-01-03T10:12:17.716Z,98619.04
2023-01-03T10:15:15.587Z,98618.56
2023-01-03T10:18:11.664Z,98617.74
2023-01-03T10:21:12.415Z,98614.62
2023-01-03T10:24:18.430Z,98613.91
2023-01-03T10:27:14.467Z,98620.61
2023-01-03T10:30:07.411Z,98617.20
2023-01-03T10:35:31.113Z,98617.60
2023-01-03T10:38:01.465Z,98621.94
2023-01-03T10:40:37.700Z,98621.90
2023-01-03T10:46:01.831Z,98629.41
2023-01-03T10:49:17.124Z,98628.36
2023-01-03T10:51:40.261Z,98627.25
2023-01-03T10:54:22.115Z,98631.30
2023-01-03T10:57:29.001Z,98632.56
2023-01-03T11:00:21.032Z,98630.42
2023-01-03T11:03:16.819Z,98627.60
2023-01-03T11:06:14.605Z,98628.41
2023-01-03T11:09:11.154Z,98623.70
2023-01-03T11:12:13.061Z,98623.81
2023-01-03T11:15:17.273Z,98620.67
2023-01-03T11:18:05.475Z,98623.98
2023-01-03T11:24:16.753Z,98629.32
2023-01-03T11:27:12.662Z,98630.86
2023-01-03T11:30:17.728Z,98630.94
2023-01-03T11:33:29.543Z,98628.23
2023-01-03T11:36:22.244Z,98625.88
2023-01-03T11:39:27.218Z,98625.13
2023-01-03T11:42:23.384Z,98623.77
2023-01-03T11:45:40.692Z,98626.19
2023-01-03T11:48:33.226Z,98630.20
2023-01-03T11:51:14.782Z,98623.26
2023-01-03T11:54:10.044Z,98624.92
2023-01-03T13:36:16.416Z,98597.40
2023-01-03T13:38:46.406Z,98600.18
2023-01-03T13:41:33.018Z,98604.02
2023-01-03T13:44:16.497Z,98610.94
2023-01-03T13:46:47.302Z,98615.27
2023-01-03T13:49:20.894Z,98612.15
2023-01-03T13:51:53.686Z,98614.08
2023-01-03T13:54:42.106Z,98612.71
2023-01-03T13:57:30.649Z,98619.36
2023-01-03T14:00:03.526Z,98620.61
2023-01-03T14:03:13.491Z,98623.48
2023-01-03T14:06:19.066Z,98628.06
2023-01-03T14:09:19.186Z,98628.42
2023-01-03T14:12:07.099Z,98631.90
2023-01-03T14:14:40.266Z,98632.98
2023-01-03T14:17:18.746Z,98635.92
2023-01-03T14:19:52.476Z,98638.89
2023-01-03T14:22:31.477Z,98637.00
2023-01-03T14:25:02.189Z,98634.62
2023-01-03T14:27:39.166Z,98639.98
2023-01-03T14:30:24.287Z,98647.95
2023-01-03T14:32:54.963Z,98648.44
2023-01-03T14:35:36.061Z,98648.62
2023-01-03T14:38:07.450Z,98649.83
2023-01-03T14:40:40.626Z,98651.75
2023-01-03T14:43:21.014Z,98651.41
2023-01-03T14:45:55.712Z,98659.86
2023-01-03T14:48:25.978Z,98659.02
2023-01-03T14:50:56.672Z,98662.45
2023-01-03T14:53:27.394Z,98664.52
2023-01-03T14:55:58.623Z,98662.48
2023-01-03T14:58:40.571Z,98665.27
2023-01-03T15:01:14.376Z,98665.45
2023-01-03T15:03:46.753Z,98668.73
2023-01-03T15:06:23.869Z,98670.27
2023-01-03T15:08:56.120Z,98676.30
2023-01-03T15:11:33.494Z,98676.83
2023-01-03T15:14:06.112Z,98678.91
2023-01-03T15:16:38.346Z,98683.23
2023-01-03T15:19:15.512Z,98685.98
2023-01-03T15:21:54.895Z,98682.05
2023-01-03T15:24:25.432Z,98681.87
2023-01-03T15:26:56.102Z,98682.42
2023-01-03T15:29:28.714Z,98684.52
2023-01-03T15:32:00.920Z,98685.38
2023-01-03T15:34:41.840Z,98690.54
2023-01-03T15:37:17.381Z,98692.79
2023-01-03T15:39:49.884Z,98695.03
2023-01-03T15:42:46.858Z,98696.08
2023-01-03T15:45:25.696Z,98697.96
2023-01-03T15:48:07.074Z,98703.13
2023-01-03T15:50:53.527Z,98704.33
2023-01-03T15:53:28.715Z,98706.91
2023-01-03T15:56:03.005Z,98710.35
2023-01-03T15:58:39.659Z,98717.92
2023-01-03T16:01:10.668Z,98723.42
2023-01-03T16:03:44.212Z,98726.16
2023-01-03T16:06:14.277Z,98724.95
2023-01-03T16:08:44.712Z,98729.94
2023-01-03T16:11:20.846Z,98733.20
2023-01-03T16:13:55.633Z,98734.21
2023-01-03T16:16:28.815Z,98736.44
2023-01-03T16:18:59.458Z,98739.86
2023-01-03T16:21:30.613Z,98741.58
2023-01-03T16:24:02.533Z,98737.96
2023-01-03T16:26:36.557Z,98738.80
2023-01-03T16:29:06.653Z,98742.21
2023-01-03T16:31:37.463Z,98740.50
2023-01-03T16:34:15.251Z,98744.61
2023-01-03T16:36:47.360Z,98751.14
2023-01-03T16:39:19.811Z,98759.55
2023-01-03T16:42:05.949Z,98764.34
2023-01-03T16:44:38.454Z,98768.61
2023-01-03T16:47:14.648Z,98771.52
2023-01-03T16:49:49.756Z,98776.16
2023-01-03T16:52:25.096Z,98776.97
2023-01-03T16:54:56.807Z,98775.07
2023-01-03T16:57:28.145Z,98776.09
2023-01-03T16:59:58.676Z,98770.41
2023-01-03T17:02:29.438Z,98771.93
2023-01-03T17:04:59.651Z,98770.05
2023-01-03T17:07:29.886Z,98772.23
2023-01-03T17:10:00.197Z,98778.05
2023-01-03T17:12:30.276Z,98776.66
2023-01-03T17:15:00.376Z,98773.90
2023-01-03T17:17:30.662Z,98774.74
2023-01-03T17:20:04.269Z,98772.86
2023-01-03T17:22:35.938Z,98769.60
2023-01-03T17:25:06.903Z,98767.54
2023-01-03T17:27:37.168Z,98773.88
2023-01-03T17:30:09.315Z,98773.55
2023-01-03T17:32:39.840Z,98775.40
2023-01-03T17:35:14.113Z,98772.27
2023-01-03T17:38:23.300Z,98773.80
2023-01-03T17:40:37.366Z,98774.27
2023-01-03T17:43:07.688Z,98772.72
2023-01-03T17:45:55.128Z,98771.32
2023-01-03T17:48:42.906Z,98771.23
2023-01-03T17:51:13.250Z,98771.55
2023-01-03T17:53:44.253Z,98775.14
2023-01-03T17:56:17.104Z,98769.84
2023-01-03T17:58:55.846Z,98777.55
2023-01-03T18:01:26.370Z,98783.09
2023-01-03T18:03:56.802Z,98788.63
2023-01-03T18:06:27.485Z,98789.20
2023-01-03T18:08:57.583Z,98784.25
2023-01-03T18:11:28.498Z,98788.44
2023-01-03T18:13:58.742Z,98790.04
2023-01-03T18:16:29.182Z,98794.50
2023-01-03T18:18:59.474Z,98791.25
2023-01-03T18:21:29.530Z,98794.17
2023-01-03T18:24:02.047Z,98795.17
2023-01-03T18:26:36.527Z,98795.16
2023-01-03T18:29:07.948Z,98798.77
2023-01-03T18:31:38.029Z,98799.95
2023-01-03T18:34:09.309Z,98793.27
2023-01-03T18:36:42.154Z,98796.02
2023-01-03T18:39:16.325Z,98804.95
2023-01-03T18:41:46.340Z,98815.04
2023-01-03T18:44:22.826Z,98814.51
2023-01-03T18:46:53.149Z,98811.42
2023-01-03T18:49:23.305Z,98817.25
2023-01-03T18:51:54.915Z,98820.81
2023-01-03T18:54:25.395Z,98817.89
2023-01-03T18:56:55.273Z,98816.54
2023-01-03T18:59:27.707Z,98817.04
2023-01-03T19:01:57.917Z,98819.42
2023-01-03T19:04:28.127Z,98813.96
2023-01-03T19:06:58.341Z,98811.38
2023-01-03T19:09:29.060Z,98814.64
2023-01-03T19:11:59.356Z,98812.23
2023-01-03T19:14:29.306Z,98810.27
2023-01-03T19:16:59.384Z,98811.60
2023-01-03T19:19:32.743Z,98812.79
2023-01-03T19:22:07.656Z,98812.95
2023-01-03T19:24:40.991Z,98816.84
2023-01-03T19:27:16.165Z,98815.73
2023-01-03T19:29:56.855Z,98817.44
2023-01-03T19:32:32.821Z,98819.14
2023-01-03T19:35:14.589Z,98819.15
2023-01-03T19:37:46.164Z,98815.00
2023-01-03T19:40:18.785Z,98814.48
2023-01-03T19:42:57.649Z,98814.64
2023-01-03T19:45:38.384Z,98817.89
2023-01-03T19:48:20.615Z,98820.27
2023-01-03T19:50:59.672Z,98816.00
2023-01-03T19:53:31.992Z,98817.36
2023-01-03T19:56:05.656Z,98814.77
2023-01-03T19:58:40.935Z,98809.25
2023-01-03T20:01:15.069Z,98816.59
2023-01-03T20:03:47.700Z,98815.71
2023-01-03T20:06:20.438Z,98809.40
2023-01-03T20:08:51.645Z,98812.63
2023-01-03T20:11:24.452Z,98819.41
2023-01-03T20:13:55.224Z,98819.02
2023-01-03T20:16:28.299Z,98824.98
2023-01-03T20:18:58.657Z,98824.57
2023-01-03T20:21:33.260Z,98832.19
2023-01-03T20:24:07.447Z,98830.41
2023-01-03T20:26:39.349Z,98834.16
2023-01-03T20:29:11.882Z,98830.72
2023-01-03T20:31:42.510Z,98831.05
2023-01-03T20:34:13.884Z,98830.02
2023-01-03T20:36:48.935Z,98836.18
2023-01-03T20:39:28.835Z,98836.06
2023-01-03T20:42:03.560Z,98836.91
2023-01-03T20:44:34.174Z,98839.61
2023-01-03T20:47:06.174Z,98841.65
2023-01-03T20:49:40.176Z,98844.05
2023-01-03T20:52:17.496Z,98844.08
2023-01-03T20:54:47.991Z,98839.74
2023-01-03T20:57:20.995Z,98838.35
2023-01-03T20:59:51.930Z,98838.16
2023-01-03T21:02:22.432Z,98835.73
2023-01-03T21:04:52.605Z,98838.05
2023-01-03T21:07:49.809Z,98838.88
2023-01-03T21:10:24.363Z,98845.98
2023-01-03T21:12:54.355Z,98853.23
2023-01-03T21:15:27.284Z,98852.55
2023-01-03T21:17:57.596Z,98853.33
2023-01-03T21:20:29.258Z,98850.63
2023-01-03T21:22:59.970Z,98854.11
2023-01-03T21:25:32.661Z,98858.70
2023-01-03T21:28:03.785Z,98858.97
2023-01-03T21:30:34.076Z,98859.58
2023-01-03T21:33:04.760Z,98862.59
2023-01-03T21:35:41.011Z,98865.56
2023-01-03T21:38:12.572Z,98869.39
2023-01-03T21:40:42.912Z,98866.95
2023-01-03T21:43:13.307Z,98868.98
2023-01-03T21:45:46.808Z,98868.76
2023-01-03T21:48:18.938Z,98867.33
2023-01-03T21:50:52.756Z,98875.98
2023-01-03T21:53:23.703Z,98873.74
2023-01-03T21:55:53.795Z,98871.94
2023-01-03T21:58:24.476Z,98879.34
2023-01-03T22:00:54.573Z,98882.14
2023-01-03T22:03:42.313Z,98881.64
2023-01-03T22:06:14.306Z,98883.10
2023-01-03T22:08:44.209Z,98884.02
2023-01-03T22:11:14.521Z,98885.89
2023-01-03T22:13:44.867Z,98889.40
2023-01-03T22:16:15.035Z,98883.11
2023-01-03T22:18:45.514Z,98886.84
2023-01-03T22:21:15.786Z,98886.98
2023-01-03T22:23:45.890Z,98885.54
2023-01-03T22:26:16.642Z,98882.73
2023-01-03T22:28:47.544Z,98887.45
2023-01-03T22:31:19.422Z,98883.10
2023-01-03T22:33:50.412Z,98884.13
2023-01-03T22:36:20.347Z,98884.66
2023-01-03T22:38:52.578Z,98880.89
2023-01-03T22:41:22.719Z,98879.71
2023-01-03T22:43:54.132Z,98876.51
2023-01-03T22:46:24.068Z,98875.84
2023-01-03T22:48:55.417Z,98872.77
2023-01-03T22:51:25.503Z,98874.08
2023-01-03T22:53:56.787Z,98879.66
2023-01-03T22:56:27.736Z,98874.63
2023-01-03T22:58:57.906Z,98870.02
2023-01-03T23:01:29.032Z,98870.16
2023-01-03T23:04:04.007Z,98870.60
2023-01-03T23:06:35.440Z,98867.89
2023-01-03T23:09:09.016Z,98870.55
2023-01-03T23:11:56.755Z,98869.23
2023-01-03T23:14:27.884Z,98870.52
2023-01-03T23:16:57.933Z,98873.63
2023-01-03T23:19:28.546Z,98878.52
2023-01-03T23:21:58.470Z,98883.89
2023-01-03T23:24:28.554Z,98884.83
2023-01-03T23:26:58.516Z,98883.23
2023-01-03T23:29:28.686Z,98883.63
2023-01-03T23:31:58.524Z,98882.66
2023-01-03T23:34:28.507Z,98884.77
2023-01-03T23:36:58.580Z,98886.64
2023-01-03T23:39:29.263Z,98887.31
2023-01-03T23:41:59.551Z,98889.39
2023-01-03T23:44:30.164Z,98888.80
2023-01-03T23:47:00.110Z,98887.05
2023-01-03T23:49:30.137Z,98891.71
2023-01-03T23:52:00.176Z,98891.98
2023-01-03T23:54:30.244Z,98885.02
2023-01-03T23:57:03.094Z,98885.41
2023-01-03T23:59:33.018Z,98879.70
